Time;durP1;ratioP1;P1;durP2;ratioP2;P2;SDS_P1;SDS_P2;PMS_P1;PMS_P2;Temp;Humidity;BMP_temperature;BMP_pressure;BME280_temperature;BME280_humidity;BME280_pressure;Samples;Min_cycle;Max_cycle;Signal;HPM_P1;HPM_P2
2022/01/21 06:07:15;;;;;;;12.02;2.90;;;;;;;;;;5659074;23;20049;-78
2022/01/21 06:09:43;;;;;;;14.82;3.58;;;;;;;;;;4833674;29;20050;-78
2022/01/21 06:12:10;;;;;;;8.65;2.95;;;;;;;;;;4834462;29;20050;-78
2022/01/21 06:14:38;;;;;;;15.10;3.35;;;;;;;;;;4838133;29;20106;-78
2022/01/21 06:17:05;;;;;;;18.00;2.92;;;;;;;;;;4834953;29;20137;-78
2022/01/21 06:19:32;;;;;;;18.80;3.60;;;;;;;;;;4837717;29;20118;-78
2022/01/21 06:21:58;;;;;;;20.85;3.28;;;;;;;;;;4837019;29;20042;-78
2022/01/21 06:24:25;;;;;;;15.18;3.42;;;;;;;;;;4835517;29;20061;-78
2022/01/21 06:26:53;;;;;;;12.25;2.63;;;;;;;;;;4834762;29;20077;-78
2022/01/21 06:29:19;;;;;;;20.70;3.67;;;;;;;;;;4836026;29;20533;-78
2022/01/21 06:31:46;;;;;;;17.42;2.75;;;;;;;;;;4836454;29;20106;-78
2022/01/21 06:34:13;;;;;;;9.85;2.63;;;;;;;;;;4837538;29;20068;-77
2022/01/21 06:36:40;;;;;;;15.80;3.08;;;;;;;;;;4834863;29;20049;-78
2022/01/21 06:39:07;;;;;;;15.43;2.92;;;;;;;;;;4834306;29;20046;-79
2022/01/21 06:41:34;;;;;;;11.55;2.80;;;;;;;;;;4839911;29;20069;-78
2022/01/21 06:44:01;;;;;;;18.75;3.10;;;;;;;;;;4822471;29;20042;-79
2022/01/21 06:46:28;;;;;;;14.57;2.92;;;;;;;;;;4839320;29;20061;-79
2022/01/21 06:48:55;;;;;;;12.05;2.78;;;;;;;;;;4840688;29;20054;-79
2022/01/21 06:51:21;;;;;;;16.98;3.47;;;;;;;;;;4839030;29;20499;-79
2022/01/21 06:53:48;;;;;;;15.52;2.88;;;;;;;;;;4838808;29;20091;-79
2022/01/21 06:56:14;;;;;;;12.80;3.28;;;;;;;;;;4840130;29;20117;-78
2022/01/21 06:58:41;;;;;;;12.68;2.67;;;;;;;;;;4841377;29;20046;-79
2022/01/21 07:01:07;;;;;;;17.92;3.63;;;;;;;;;;4839162;29;20054;-78
2022/01/21 07:03:34;;;;;;;23.92;4.28;;;;;;;;;;4839787;29;20610;-79
2022/01/21 07:06:01;;;;;;;13.30;3.13;;;;;;;;;;4838771;29;20077;-78
2022/01/21 07:08:28;;;;;;;13.40;2.90;;;;;;;;;;4839690;29;20053;-80
2022/01/21 07:10:55;;;;;;;20.15;3.00;;;;;;;;;;4839402;29;20074;-80
2022/01/21 07:13:22;;;;;;;14.68;3.42;;;;;;;;;;4840773;29;20045;-78
2022/01/21 07:15:48;;;;;;;13.38;3.17;;;;;;;;;;4837485;29;20100;-79
2022/01/21 07:18:15;;;;;;;21.15;3.72;;;;;;;;;;4839406;29;20042;-79
2022/01/21 07:20:42;;;;;;;15.07;2.92;;;;;;;;;;4838664;29;20058;-79
2022/01/21 07:23:09;;;;;;;12.52;3.05;;;;;;;;;;4837823;29;20400;-81
2022/01/21 07:25:37;;;;;;;11.35;2.92;;;;;;;;;;4841274;29;20064;-80
2022/01/21 07:28:05;;;;;;;14.38;2.92;;;;;;;;;;4837788;29;20753;-82
2022/01/21 07:30:32;;;;;;;10.75;2.97;;;;;;;;;;4838359;29;20090;-81
2022/01/21 07:32:58;;;;;;;16.88;3.10;;;;;;;;;;4837560;29;20046;-81
2022/01/21 07:35:25;;;;;;;13.55;3.38;;;;;;;;;;4823171;29;20046;-80
2022/01/21 07:38:09;;;;;;;13.98;2.75;;;;;;;;;;4809171;29;20112;-80
2022/01/21 07:40:36;;;;;;;14.73;3.38;;;;;;;;;;4840095;29;20511;-80
2022/01/21 07:43:02;;;;;;;13.75;3.13;;;;;;;;;;4838535;29;20077;-81
2022/01/21 07:45:29;;;;;;;15.38;2.65;;;;;;;;;;4836711;29;20111;-81
2022/01/21 07:47:56;;;;;;;12.48;2.90;;;;;;;;;;4837052;29;20507;-80
2022/01/21 07:50:23;;;;;;;14.73;3.13;;;;;;;;;;4822744;29;20110;-81
2022/01/21 07:52:49;;;;;;;11.70;2.78;;;;;;;;;;4838165;29;20081;-80
2022/01/21 07:55:16;;;;;;;10.07;2.85;;;;;;;;;;4838736;29;20058;-80
2022/01/21 07:57:45;;;;;;;14.52;2.92;;;;;;;;;;4836822;29;20625;-80
2022/01/21 08:00:12;;;;;;;11.70;3.17;;;;;;;;;;4836960;29;20046;-80
2022/01/21 08:02:39;;;;;;;14.07;4.05;;;;;;;;;;4837429;29;20134;-80
2022/01/21 08:05:07;;;;;;;14.25;5.40;;;;;;;;;;4836686;29;20504;-79
2022/01/21 08:07:33;;;;;;;14.23;4.63;;;;;;;;;;4839162;29;20054;-80
2022/01/21 08:10:00;;;;;;;13.98;2.90;;;;;;;;;;4839090;29;20053;-80
2022/01/21 08:12:27;;;;;;;13.10;3.45;;;;;;;;;;4836373;29;20061;-80
2022/01/21 08:14:54;;;;;;;21.65;4.63;;;;;;;;;;4836623;29;20083;-80
2022/01/21 08:17:21;;;;;;;12.85;3.28;;;;;;;;;;4836907;29;20095;-81
2022/01/21 08:19:48;;;;;;;19.42;3.15;;;;;;;;;;4838782;29;20057;-81
2022/01/21 08:22:15;;;;;;;13.57;2.55;;;;;;;;;;4837261;29;20106;-81
2022/01/21 08:24:42;;;;;;;12.13;2.72;;;;;;;;;;4836872;29;20057;-81
2022/01/21 08:27:08;;;;;;;12.65;3.05;;;;;;;;;;4836262;29;20042;-81
2022/01/21 08:29:35;;;;;;;13.68;2.55;;;;;;;;;;4836732;29;20445;-81
2022/01/21 08:32:03;;;;;;;12.77;2.83;;;;;;;;;;4836848;29;20074;-81
2022/01/21 08:34:34;;;;;;;15.77;2.80;;;;;;;;;;4836227;29;20042;-81
2022/01/21 08:37:02;;;;;;;12.32;3.03;;;;;;;;;;4836754;29;20057;-81
2022/01/21 08:39:28;;;;;;;12.95;3.20;;;;;;;;;;4836334;29;20141;-80
2022/01/21 08:41:55;;;;;;;13.35;2.50;;;;;;;;;;4836595;29;20042;-81
2022/01/21 08:44:22;;;;;;;19.40;3.22;;;;;;;;;;4835683;29;20871;-81
2022/01/21 08:46:49;;;;;;;10.90;3.00;;;;;;;;;;4838246;29;20050;-81
2022/01/21 08:49:36;;;;;;;13.90;2.75;;;;;;;;;;4834873;29;20072;-81
2022/01/21 08:52:03;;;;;;;9.25;2.30;;;;;;;;;;4837086;29;20073;-81
2022/01/21 08:54:30;;;;;;;15.38;3.15;;;;;;;;;;4836175;29;20507;-81
2022/01/21 08:56:57;;;;;;;8.95;3.28;;;;;;;;;;4836002;29;20056;-81
2022/01/21 08:59:26;;;;;;;12.00;2.70;;;;;;;;;;4835803;29;20423;-81
2022/01/21 09:01:54;;;;;;;16.00;3.20;;;;;;;;;;4836981;29;20153;-81
2022/01/21 09:04:21;;;;;;;10.52;2.70;;;;;;;;;;4837236;29;20060;-81
2022/01/21 09:06:48;;;;;;;8.05;2.90;;;;;;;;;;4835795;29;20050;-80
2022/01/21 09:09:15;;;;;;;15.15;3.17;;;;;;;;;;4837173;29;20118;-80
2022/01/21 09:11:41;;;;;;;9.52;2.55;;;;;;;;;;4835754;29;20077;-80
2022/01/21 09:14:09;;;;;;;25.35;2.90;;;;;;;;;;4835818;29;20070;-81
2022/01/21 09:16:36;;;;;;;12.07;2.63;;;;;;;;;;4838882;29;20515;-81
2022/01/21 09:19:04;;;;;;;12.45;2.47;;;;;;;;;;4836288;29;20103;-81
2022/01/21 09:21:41;;;;;;;11.15;2.47;;;;;;;;;;4835667;29;20050;-81
2022/01/21 09:24:08;;;;;;;16.27;2.58;;;;;;;;;;4836338;29;20080;-81
2022/01/21 09:26:35;;;;;;;10.75;2.42;;;;;;;;;;4819581;29;20054;-81
2022/01/21 09:29:05;;;;;;;11.07;2.38;;;;;;;;;;4836361;29;20049;-82
2022/01/21 09:31:32;;;;;;;12.75;2.50;;;;;;;;;;4834912;29;20514;-80
2022/01/21 09:34:19;;;;;;;12.40;2.47;;;;;;;;;;4836553;29;20149;-82
2022/01/21 09:36:46;;;;;;;8.75;2.33;;;;;;;;;;4835757;29;20073;-81
2022/01/21 09:39:13;;;;;;;12.45;2.60;;;;;;;;;;4835340;29;20046;-81
2022/01/21 09:41:42;;;;;;;8.05;2.60;;;;;;;;;;4835411;29;20042;-82
2022/01/21 09:44:18;;;;;;;15.45;4.07;;;;;;;;;;4834856;29;20106;-81
2022/01/21 09:46:48;;;;;;;11.70;2.03;;;;;;;;;;4837943;29;20637;-81
2022/01/21 09:51:53;;;;;;;11.32;2.33;;;;;;;;;;4835311;29;20682;-82
2022/01/21 09:54:24;;;;;;;11.48;2.30;;;;;;;;;;4834581;29;20090;-82
2022/01/21 09:56:53;;;;;;;12.60;2.45;;;;;;;;;;4835454;29;20109;-82
2022/01/21 09:59:22;;;;;;;10.32;2.63;;;;;;;;;;4834849;29;20050;-82
2022/01/21 10:01:51;;;;;;;14.60;2.40;;;;;;;;;;4836856;29;20054;-82
2022/01/21 10:04:20;;;;;;;10.18;2.00;;;;;;;;;;4836394;29;20058;-82
2022/01/21 10:06:47;;;;;;;10.98;2.08;;;;;;;;;;4835016;29;20579;-81
2022/01/21 10:09:15;;;;;;;14.95;2.78;;;;;;;;;;4836389;29;20387;-81
2022/01/21 10:11:48;;;;;;;7.82;1.98;;;;;;;;;;4835014;29;20087;-82
2022/01/21 10:14:19;;;;;;;14.40;2.50;;;;;;;;;;4834420;29;20050;-82
2022/01/21 10:16:48;;;;;;;12.15;2.60;;;;;;;;;;4836926;29;20132;-81
2022/01/21 10:19:23;;;;;;;11.02;2.13;;;;;;;;;;4836125;29;20050;-81
2022/01/21 10:22:03;;;;;;;11.05;2.45;;;;;;;;;;4835379;29;20134;-81
2022/01/21 10:24:32;;;;;;;14.02;3.00;;;;;;;;;;4834877;29;20516;-82
2022/01/21 10:26:59;;;;;;;14.52;2.63;;;;;;;;;;4835116;29;20042;-82
2022/01/21 10:29:46;;;;;;;12.02;2.50;;;;;;;;;;4834907;29;20117;-81
2022/01/21 10:32:12;;;;;;;12.65;2.25;;;;;;;;;;4834102;29;20238;-81
2022/01/21 10:34:44;;;;;;;16.05;2.75;;;;;;;;;;4833776;29;20054;-81
2022/01/21 10:37:23;;;;;;;12.05;2.17;;;;;;;;;;4829710;29;20054;-81
2022/01/21 10:40:19;;;;;;;9.23;2.38;;;;;;;;;;4825662;29;20105;-79
2022/01/21 10:42:46;;;;;;;10.27;2.28;;;;;;;;;;4830413;29;20054;-80
2022/01/21 10:45:12;;;;;;;12.10;2.08;;;;;;;;;;4820796;29;20129;-81
2022/01/21 10:47:49;;;;;;;13.32;2.20;;;;;;;;;;4833086;29;20105;-80
2022/01/21 10:50:22;;;;;;;8.38;1.88;;;;;;;;;;4850546;29;20057;-79
2022/01/21 10:52:52;;;;;;;10.13;2.15;;;;;;;;;;4850554;29;20060;-79
2022/01/21 10:55:38;;;;;;;12.85;2.28;;;;;;;;;;4834859;29;20447;-80
2022/01/21 10:58:16;;;;;;;11.77;2.88;;;;;;;;;;4851522;29;20053;-80
2022/01/21 11:01:01;;;;;;;17.17;2.20;;;;;;;;;;4847984;29;20073;-80
2022/01/21 11:03:30;;;;;;;13.68;2.40;;;;;;;;;;4834509;29;20053;-80
2022/01/21 11:06:17;;;;;;;8.35;1.90;;;;;;;;;;4838227;29;20579;-80
2022/01/21 11:08:46;;;;;;;11.85;2.95;;;;;;;;;;4829541;29;20649;-80
2022/01/21 11:11:20;;;;;;;11.93;1.90;;;;;;;;;;4838861;29;20049;-79
2022/01/21 11:13:47;;;;;;;12.13;2.30;;;;;;;;;;4844411;29;20061;-79
2022/01/21 11:16:18;;;;;;;12.18;2.40;;;;;;;;;;4851168;29;20479;-80
2022/01/21 11:19:08;;;;;;;12.65;2.53;;;;;;;;;;4840619;29;20562;-79
2022/01/21 11:21:52;;;;;;;11.55;2.60;;;;;;;;;;4847710;29;20060;-80
2022/01/21 11:24:21;;;;;;;14.50;2.30;;;;;;;;;;4849980;29;20053;-80
2022/01/21 11:27:09;;;;;;;10.50;2.55;;;;;;;;;;4835611;29;20060;-80
2022/01/21 11:29:36;;;;;;;14.70;2.97;;;;;;;;;;4837505;29;20102;-79
2022/01/21 11:32:03;;;;;;;11.45;2.53;;;;;;;;;;4837923;29;20114;-80
2022/01/21 11:34:32;;;;;;;13.32;2.55;;;;;;;;;;4836928;29;20054;-80
2022/01/21 11:36:59;;;;;;;;;;;;;;;;;;4855801;29;20434;-79
2022/01/21 11:39:30;;;;;;;9.27;2.80;;;;;;;;;;4849800;29;19932;-79
2022/01/21 11:41:59;;;;;;;16.52;2.97;;;;;;;;;;4855031;29;20109;-79
2022/01/21 11:44:28;;;;;;;;;;;;;;;;;;4841442;29;20081;-79
2022/01/21 11:47:13;;;;;;;12.48;3.22;;;;;;;;;;4836023;29;19936;-79
2022/01/21 11:49:54;;;;;;;16.65;4.15;;;;;;;;;;4833016;29;20077;-78
2022/01/21 11:52:21;;;;;;;15.57;3.70;;;;;;;;;;4834623;29;20061;-78
2022/01/21 11:54:49;;;;;;;15.43;3.13;;;;;;;;;;4833630;29;20046;-78
2022/01/21 11:57:31;;;;;;;20.25;3.40;;;;;;;;;;4834411;29;20050;-78
2022/01/21 12:00:17;;;;;;;12.93;3.20;;;;;;;;;;4834297;29;20095;-78
2022/01/21 12:02:49;;;;;;;11.02;3.25;;;;;;;;;;4816066;29;20049;-78
2022/01/21 12:05:25;;;;;;;16.13;3.65;;;;;;;;;;4834543;29;20054;-78
2022/01/21 12:07:52;;;;;;;14.05;3.28;;;;;;;;;;4834849;29;20045;-78
2022/01/21 12:10:22;;;;;;;13.85;3.88;;;;;;;;;;4835707;29;20077;-79
2022/01/21 12:12:54;;;;;;;14.05;3.35;;;;;;;;;;4833740;29;20575;-78
2022/01/21 12:15:24;;;;;;;13.90;3.10;;;;;;;;;;4834324;29;20065;-80
2022/01/21 12:19:05;;;;;;;11.50;3.00;;;;;;;;;;4834573;29;20041;-79
2022/01/21 12:21:05;;;;;;;7.40;2.70;;;;;;;;;;4830017;29;20050;-79
2022/01/21 12:23:45;;;;;;;11.52;2.92;;;;;;;;;;4835024;29;20050;-80
2022/01/21 12:26:12;;;;;;;14.95;3.10;;;;;;;;;;4835178;29;20629;-79
2022/01/21 12:28:41;;;;;;;10.00;2.97;;;;;;;;;;4835541;29;20497;-80
2022/01/21 12:31:09;;;;;;;12.00;2.60;;;;;;;;;;4835661;29;20555;-79
2022/01/21 12:33:57;;;;;;;10.45;3.05;;;;;;;;;;4819086;29;20050;-79
2022/01/21 12:36:29;;;;;;;13.48;3.03;;;;;;;;;;4834907;29;20053;-80
2022/01/21 12:41:23;;;;;;;13.15;2.88;;;;;;;;;;4834656;29;20129;-80
2022/01/21 12:43:56;;;;;;;12.93;2.80;;;;;;;;;;4834446;29;20077;-79
2022/01/21 12:46:23;;;;;;;16.60;2.70;;;;;;;;;;4834170;29;20053;-79
2022/01/21 12:48:51;;;;;;;8.45;3.03;;;;;;;;;;4832670;29;20207;-79
2022/01/21 12:51:33;;;;;;;12.25;2.45;;;;;;;;;;4832926;29;20134;-79
2022/01/21 12:56:50;;;;;;;11.00;2.08;;;;;;;;;;4832861;29;20050;-79
2022/01/21 12:59:19;;;;;;;8.93;1.90;;;;;;;;;;4833217;29;20081;-79
2022/01/21 13:01:47;;;;;;;10.88;2.15;;;;;;;;;;4833827;29;20181;-80
2022/01/21 13:04:27;;;;;;;6.83;2.00;;;;;;;;;;4834525;29;20109;-80
2022/01/21 13:07:25;;;;;;;7.07;1.90;;;;;;;;;;4833591;29;20394;-81
2022/01/21 13:10:01;;;;;;;15.85;2.97;;;;;;;;;;4833600;29;20048;-80
2022/01/21 13:15:47;;;;;;;10.52;2.40;;;;;;;;;;4833239;29;22879;-80
2022/01/21 13:18:16;;;;;;;13.32;2.47;;;;;;;;;;4831324;29;20054;-81
2022/01/21 13:20:46;;;;;;;10.60;2.70;;;;;;;;;;4830281;29;20123;-79
2022/01/21 13:23:55;;;;;;;9.10;2.15;;;;;;;;;;4830886;29;20050;-80
2022/01/21 13:26:31;;;;;;;6.30;1.65;;;;;;;;;;4832232;29;20070;-80
2022/01/21 13:29:00;;;;;;;12.27;2.15;;;;;;;;;;4836048;29;20476;-80
2022/01/21 13:31:29;;;;;;;8.35;2.03;;;;;;;;;;4846562;29;20073;-80
2022/01/21 13:34:12;;;;;;;8.80;2.20;;;;;;;;;;4844304;29;20075;-80
2022/01/21 13:36:47;;;;;;;13.70;2.15;;;;;;;;;;4840379;29;20081;-82
2022/01/21 13:39:20;;;;;;;12.65;2.50;;;;;;;;;;4844016;29;20098;-80
2022/01/21 13:42:05;;;;;;;9.30;2.00;;;;;;;;;;4830680;29;20045;-81
2022/01/21 13:44:52;;;;;;;13.35;2.25;;;;;;;;;;4842532;29;20065;-80
2022/01/21 13:47:28;;;;;;;8.98;2.47;;;;;;;;;;4842398;29;20057;-81
2022/01/21 13:49:56;;;;;;;11.68;2.38;;;;;;;;;;4844559;29;20108;-80
2022/01/21 13:52:44;;;;;;;8.40;1.98;;;;;;;;;;4847254;29;20077;-80
2022/01/21 13:55:24;;;;;;;11.90;2.50;;;;;;;;;;4846667;29;20050;-80
2022/01/21 13:57:52;;;;;;;10.02;2.50;;;;;;;;;;4843595;29;20511;-80
2022/01/21 14:00:45;;;;;;;11.30;2.25;;;;;;;;;;4841422;29;20054;-80
2022/01/21 14:03:21;;;;;;;9.77;1.92;;;;;;;;;;4840054;29;20106;-79
2022/01/21 14:05:58;;;;;;;12.43;2.47;;;;;;;;;;4843608;29;20053;-80
2022/01/21 14:08:34;;;;;;;7.13;2.80;;;;;;;;;;4841076;29;20114;-81
2022/01/21 14:11:04;;;;;;;13.57;2.30;;;;;;;;;;4843656;29;20062;-80
2022/01/21 14:13:35;;;;;;;11.43;2.28;;;;;;;;;;4845807;29;20045;-80
2022/01/21 14:16:06;;;;;;;11.18;2.22;;;;;;;;;;4844608;29;20112;-80
2022/01/21 14:18:37;;;;;;;17.38;2.42;;;;;;;;;;4843741;29;20054;-80
2022/01/21 14:21:15;;;;;;;10.73;2.40;;;;;;;;;;4846166;29;20081;-80
2022/01/21 14:23:43;;;;;;;15.40;3.25;;;;;;;;;;4838364;29;20046;-79
2022/01/21 14:26:15;;;;;;;10.45;3.35;;;;;;;;;;4842842;29;20049;-80
2022/01/21 14:28:43;;;;;;;12.77;2.78;;;;;;;;;;4847406;29;20511;-80
2022/01/21 14:31:28;;;;;;;12.02;2.35;;;;;;;;;;4845513;29;20042;-80
2022/01/21 14:33:56;;;;;;;11.95;2.33;;;;;;;;;;4826615;29;20529;-80
2022/01/21 14:36:22;;;;;;;9.40;2.90;;;;;;;;;;4844314;29;20042;-80
2022/01/21 14:38:52;;;;;;;15.57;2.55;;;;;;;;;;4843335;29;20049;-80
2022/01/21 14:41:24;;;;;;;10.63;2.28;;;;;;;;;;4840256;29;20061;-78
2022/01/21 14:44:12;;;;;;;7.55;2.28;;;;;;;;;;4824941;29;20392;-77
2022/01/21 14:46:40;;;;;;;11.55;2.03;;;;;;;;;;4842028;29;20054;-78
2022/01/21 14:49:09;;;;;;;14.90;2.47;;;;;;;;;;4834493;29;20583;-79
2022/01/21 14:51:49;;;;;;;6.95;2.10;;;;;;;;;;4833779;29;20054;-79
2022/01/21 14:54:18;;;;;;;10.20;2.47;;;;;;;;;;4832828;29;20056;-79
2022/01/21 14:56:58;;;;;;;15.35;2.70;;;;;;;;;;4833020;29;20117;-79
2022/01/21 14:59:25;;;;;;;13.85;3.42;;;;;;;;;;4816747;29;20061;-79
2022/01/21 15:01:58;;;;;;;11.88;2.90;;;;;;;;;;4836631;29;20479;-78
2022/01/21 15:04:25;;;;;;;13.63;2.22;;;;;;;;;;4839824;29;20053;-79
2022/01/21 15:07:17;;;;;;;8.35;3.53;;;;;;;;;;4838846;29;20053;-80
2022/01/21 15:09:49;;;;;;;14.63;6.70;;;;;;;;;;4839413;29;20054;-80
2022/01/21 15:15:31;;;;;;;22.50;4.75;;;;;;;;;;4836595;29;20077;-80
2022/01/21 15:17:59;;;;;;;;;;;;;;;;;;4837658;29;20556;-80
2022/01/21 15:20:36;;;;;;;15.37;4.20;;;;;;;;;;4836483;29;20310;-81
2022/01/21 15:23:05;;;;;;;23.40;4.68;;;;;;;;;;4822107;29;20046;-79
2022/01/21 15:25:33;;;;;;;18.17;4.05;;;;;;;;;;4837119;29;20054;-79
2022/01/21 15:28:01;;;;;;;8.27;2.93;;;;;;;;;;4839733;29;20053;-80
2022/01/21 15:30:29;;;;;;;11.55;2.85;;;;;;;;;;4835631;29;20058;-79
2022/01/21 15:32:57;;;;;;;14.00;3.08;;;;;;;;;;4836637;29;20042;-80
2022/01/21 15:35:24;;;;;;;14.48;2.50;;;;;;;;;;4836286;29;20046;-80
2022/01/21 15:37:51;;;;;;;12.88;2.67;;;;;;;;;;4839418;29;20050;-78
2022/01/21 15:40:19;;;;;;;13.13;3.00;;;;;;;;;;4825861;29;20058;-81
2022/01/21 15:42:51;;;;;;;21.80;3.10;;;;;;;;;;4838830;29;20053;-80
2022/01/21 15:45:23;;;;;;;20.52;7.07;;;;;;;;;;4837551;29;20434;-78
2022/01/21 15:47:52;;;;;;;15.65;3.53;;;;;;;;;;4838019;29;20050;-80
2022/01/21 15:50:23;;;;;;;32.30;12.38;;;;;;;;;;4838941;29;20066;-80
2022/01/21 15:52:50;;;;;;;13.52;2.97;;;;;;;;;;4835557;29;20046;-80
2022/01/21 15:55:18;;;;;;;11.13;3.17;;;;;;;;;;4839660;29;20046;-80
2022/01/21 15:57:45;;;;;;;14.25;3.13;;;;;;;;;;4838657;29;20861;-79
2022/01/21 16:00:18;;;;;;;12.63;2.95;;;;;;;;;;4821816;29;20884;-80
2022/01/21 16:02:48;;;;;;;12.90;5.68;;;;;;;;;;4838496;29;20061;-79
2022/01/21 16:05:16;;;;;;;18.45;5.53;;;;;;;;;;4837765;29;20054;-82
2022/01/21 16:07:43;;;;;;;11.43;4.40;;;;;;;;;;4839476;29;20042;-80
2022/01/21 16:10:10;;;;;;;31.52;5.88;;;;;;;;;;4840213;29;20053;-80
2022/01/21 16:12:37;;;;;;;21.20;4.60;;;;;;;;;;4837467;29;20061;-81
2022/01/21 16:15:04;;;;;;;11.10;3.28;;;;;;;;;;4836102;29;20050;-80
2022/01/21 16:17:32;;;;;;;16.10;3.08;;;;;;;;;;4837004;29;20046;-79
2022/01/21 16:19:59;;;;;;;12.40;4.28;;;;;;;;;;4837572;29;20111;-80
2022/01/21 16:22:26;;;;;;;16.15;4.13;;;;;;;;;;4839545;29;20054;-80
2022/01/21 16:24:53;;;;;;;10.00;3.25;;;;;;;;;;4836391;29;20106;-77
2022/01/21 16:27:20;;;;;;;11.65;3.80;;;;;;;;;;4831296;29;20046;-78
2022/01/21 16:29:46;;;;;;;19.77;3.95;;;;;;;;;;4829930;29;20062;-77
2022/01/21 16:32:13;;;;;;;15.68;4.43;;;;;;;;;;4825292;29;20053;-79
2022/01/21 16:34:40;;;;;;;29.45;11.30;;;;;;;;;;4824792;29;20052;-78
2022/01/21 16:37:07;;;;;;;30.60;15.90;;;;;;;;;;4828065;29;20444;-79
2022/01/21 16:39:34;;;;;;;22.52;15.65;;;;;;;;;;4811754;29;20054;-79
2022/01/21 16:42:02;;;;;;;21.23;4.88;;;;;;;;;;4828361;29;20436;-79
2022/01/21 16:44:30;;;;;;;29.50;14.88;;;;;;;;;;4834691;29;21015;-79
2022/01/21 16:46:58;;;;;;;13.05;3.40;;;;;;;;;;4837311;29;20519;-79
2022/01/21 16:49:25;;;;;;;11.50;2.73;;;;;;;;;;4837632;29;20049;-80
2022/01/21 16:51:52;;;;;;;7.95;2.55;;;;;;;;;;4832166;29;21441;-79
2022/01/21 16:54:19;;;;;;;14.05;2.90;;;;;;;;;;4846850;29;20515;-79
2022/01/21 16:56:46;;;;;;;10.98;3.40;;;;;;;;;;4841492;29;20549;-79
2022/01/21 16:59:13;;;;;;;13.90;3.38;;;;;;;;;;4851924;29;20120;-79
2022/01/21 17:01:40;;;;;;;13.40;3.15;;;;;;;;;;4853085;29;20057;-79
2022/01/21 17:04:07;;;;;;;11.13;2.90;;;;;;;;;;4852286;29;20056;-79
2022/01/21 17:06:34;;;;;;;17.30;3.80;;;;;;;;;;4823768;29;20149;-79
2022/01/21 17:09:01;;;;;;;12.82;2.97;;;;;;;;;;4827439;29;20522;-79
2022/01/21 17:11:28;;;;;;;13.20;2.80;;;;;;;;;;4851777;29;20084;-78
2022/01/21 17:13:55;;;;;;;16.08;3.05;;;;;;;;;;4832414;29;20065;-79
2022/01/21 17:16:22;;;;;;;27.38;13.00;;;;;;;;;;4852708;29;20055;-79
2022/01/21 17:18:50;;;;;;;24.73;9.25;;;;;;;;;;4817198;29;20591;-80
2022/01/21 17:21:16;;;;;;;12.55;4.20;;;;;;;;;;4828497;29;20047;-79
2022/01/21 17:23:43;;;;;;;12.13;3.58;;;;;;;;;;4827488;29;20129;-79
2022/01/21 17:26:10;;;;;;;15.60;3.03;;;;;;;;;;4828938;29;20514;-79
2022/01/21 17:28:37;;;;;;;15.20;3.67;;;;;;;;;;4835666;29;20054;-79
2022/01/21 17:31:04;;;;;;;9.90;2.88;;;;;;;;;;4828724;29;20608;-80
2022/01/21 17:33:31;;;;;;;14.02;3.60;;;;;;;;;;4828621;29;20054;-78
2022/01/21 17:35:57;;;;;;;13.05;3.30;;;;;;;;;;4833574;29;20152;-79
2022/01/21 17:38:24;;;;;;;21.30;4.53;;;;;;;;;;4820503;29;20166;-79
2022/01/21 17:40:53;;;;;;;14.13;3.75;;;;;;;;;;4821498;29;20047;-79
2022/01/21 17:43:23;;;;;;;14.80;2.92;;;;;;;;;;4828196;29;20080;-80
2022/01/21 17:45:50;;;;;;;8.85;3.30;;;;;;;;;;4814824;29;20046;-80
2022/01/21 17:48:17;;;;;;;12.68;3.65;;;;;;;;;;4822158;29;20066;-80
2022/01/21 17:50:47;;;;;;;13.38;3.30;;;;;;;;;;4821183;29;20400;-78
2022/01/21 17:53:19;;;;;;;15.48;3.65;;;;;;;;;;4819970;29;20465;-79
2022/01/21 17:55:45;;;;;;;15.73;4.28;;;;;;;;;;4836374;29;20137;-79
2022/01/21 17:58:12;;;;;;;17.45;4.75;;;;;;;;;;4838193;29;20064;-80
2022/01/21 18:00:40;;;;;;;16.42;5.10;;;;;;;;;;4834176;29;20542;-79
2022/01/21 18:03:07;;;;;;;16.77;5.15;;;;;;;;;;4832836;29;20045;-79
2022/01/21 18:05:34;;;;;;;22.05;5.13;;;;;;;;;;4834358;29;20065;-79
2022/01/21 18:08:01;;;;;;;19.48;6.07;;;;;;;;;;4836279;29;20137;-79
2022/01/21 18:10:44;;;;;;;20.70;5.82;;;;;;;;;;4837302;29;20473;-78
2022/01/21 18:13:17;;;;;;;17.95;5.30;;;;;;;;;;4837075;29;20053;-78
2022/01/21 18:15:48;;;;;;;20.15;5.40;;;;;;;;;;4834707;29;20077;-78
2022/01/21 18:18:17;;;;;;;23.65;7.32;;;;;;;;;;4832791;29;20050;-78
2022/01/21 18:20:45;;;;;;;15.48;6.32;;;;;;;;;;4833251;29;20129;-79
2022/01/21 18:23:12;;;;;;;20.95;9.35;;;;;;;;;;4833285;29;20107;-79
2022/01/21 18:25:39;;;;;;;28.50;10.20;;;;;;;;;;4835994;29;20070;-79
2022/01/21 18:28:06;;;;;;;16.52;7.20;;;;;;;;;;4833231;29;20045;-78
2022/01/21 18:30:34;;;;;;;18.00;6.72;;;;;;;;;;4833337;29;20136;-77
2022/01/21 18:33:06;;;;;;;15.35;5.85;;;;;;;;;;4817998;29;20431;-78
2022/01/21 18:35:34;;;;;;;20.25;5.78;;;;;;;;;;4835847;29;20056;-77
2022/01/21 18:38:01;;;;;;;18.67;6.63;;;;;;;;;;4837941;29;20136;-77
2022/01/21 18:40:27;;;;;;;18.83;7.30;;;;;;;;;;4839672;29;20065;-78
2022/01/21 18:42:54;;;;;;;14.13;5.72;;;;;;;;;;4823129;29;20050;-79
2022/01/21 18:45:36;;;;;;;16.05;6.65;;;;;;;;;;4835409;29;20125;-78
2022/01/21 18:48:03;;;;;;;17.42;5.72;;;;;;;;;;4836190;29;20050;-78
2022/01/21 18:50:50;;;;;;;23.17;6.05;;;;;;;;;;4837362;29;20422;-78
2022/01/21 18:53:18;;;;;;;13.50;5.43;;;;;;;;;;4837106;29;20043;-79
2022/01/21 18:55:45;;;;;;;18.58;6.47;;;;;;;;;;4840323;29;20063;-79
2022/01/21 18:58:12;;;;;;;14.30;6.43;;;;;;;;;;4822360;29;20112;-80
2022/01/21 19:00:38;;;;;;;17.23;6.30;;;;;;;;;;4837550;29;20066;-80
2022/01/21 19:03:06;;;;;;;12.38;6.45;;;;;;;;;;4837719;29;20065;-79
2022/01/21 19:05:34;;;;;;;25.63;9.02;;;;;;;;;;4838011;29;20453;-80
2022/01/21 19:08:01;;;;;;;24.20;9.30;;;;;;;;;;4839729;29;20077;-80
2022/01/21 19:10:30;;;;;;;17.38;8.40;;;;;;;;;;4839318;29;20075;-80
2022/01/21 19:12:57;;;;;;;21.00;10.57;;;;;;;;;;4836902;29;20084;-78
2022/01/21 19:15:24;;;;;;;21.15;10.13;;;;;;;;;;4837374;29;20523;-79
2022/01/21 19:17:51;;;;;;;19.73;10.00;;;;;;;;;;4838097;29;20114;-79
2022/01/21 19:20:21;;;;;;;17.27;7.47;;;;;;;;;;4844040;29;20081;-79
2022/01/21 19:22:53;;;;;;;24.95;9.85;;;;;;;;;;4840172;29;20075;-79
2022/01/21 19:25:35;;;;;;;14.75;9.25;;;;;;;;;;4838996;29;20114;-79
2022/01/21 19:28:05;;;;;;;19.73;8.48;;;;;;;;;;4837453;29;20050;-79
2022/01/21 19:30:33;;;;;;;25.60;8.23;;;;;;;;;;4837633;29;20090;-80
2022/01/21 19:32:59;;;;;;;19.60;7.25;;;;;;;;;;4837636;29;20054;-80
2022/01/21 19:35:26;;;;;;;18.55;8.57;;;;;;;;;;4837525;29;20050;-80
2022/01/21 19:37:53;;;;;;;19.15;10.10;;;;;;;;;;4839154;29;20126;-80
2022/01/21 19:40:22;;;;;;;22.73;9.70;;;;;;;;;;4838696;29;20065;-80
2022/01/21 19:42:48;;;;;;;17.02;9.10;;;;;;;;;;4833469;29;20057;-79
2022/01/21 19:45:16;;;;;;;17.27;9.30;;;;;;;;;;4836489;29;20086;-78
2022/01/21 19:47:56;;;;;;;19.50;8.63;;;;;;;;;;4836675;29;20083;-78
2022/01/21 19:50:29;;;;;;;16.70;6.93;;;;;;;;;;4835627;29;20057;-79
2022/01/21 19:52:58;;;;;;;15.35;6.97;;;;;;;;;;4835365;29;26933;-79
2022/01/21 19:55:27;;;;;;;20.38;6.47;;;;;;;;;;4835789;29;20057;-78
2022/01/21 19:58:05;;;;;;;16.52;8.13;;;;;;;;;;4834487;29;20629;-77
2022/01/21 20:00:49;;;;;;;16.55;9.30;;;;;;;;;;4835671;29;20054;-78
2022/01/21 20:08:50;;;;;;;15.13;5.78;;;;;;;;;;4836323;29;20077;-79
2022/01/21 20:16:55;;;;;;;14.43;5.60;;;;;;;;;;4830260;29;20062;-78
2022/01/21 20:19:23;;;;;;;17.17;5.78;;;;;;;;;;4834358;29;20054;-77
2022/01/21 20:21:50;;;;;;;15.40;5.68;;;;;;;;;;4833615;29;20123;-78
2022/01/21 20:24:17;;;;;;;13.35;5.55;;;;;;;;;;4832456;29;20042;-78
2022/01/21 20:26:46;;;;;;;14.73;5.88;;;;;;;;;;4834527;29;20054;-77
2022/01/21 20:29:12;;;;;;;10.65;5.40;;;;;;;;;;4834749;29;20114;-77
2022/01/21 20:31:46;;;;;;;17.20;5.70;;;;;;;;;;4835702;29;20129;-77
2022/01/21 20:34:14;;;;;;;19.77;5.03;;;;;;;;;;4818808;29;20081;-78
2022/01/21 20:36:45;;;;;;;17.77;7.65;;;;;;;;;;4833461;29;20069;-76
2022/01/21 20:39:43;;;;;;;15.93;6.95;;;;;;;;;;4830649;29;20140;-76
2022/01/21 20:42:05;;;;;;;19.38;5.93;;;;;;;;;;4837888;29;20554;-77
2022/01/21 20:44:37;;;;;;;15.23;5.85;;;;;;;;;;4841206;29;20053;-77
2022/01/21 20:47:06;;;;;;;18.38;6.22;;;;;;;;;;4839389;29;20074;-79
2022/01/21 20:49:34;;;;;;;16.58;5.65;;;;;;;;;;4836231;29;20054;-77
2022/01/21 20:52:02;;;;;;;9.85;4.88;;;;;;;;;;4835201;29;20085;-78
2022/01/21 20:54:29;;;;;;;12.52;5.28;;;;;;;;;;4834906;29;20056;-77
2022/01/21 20:56:56;;;;;;;13.52;5.63;;;;;;;;;;4835430;29;20069;-78
2022/01/21 20:59:29;;;;;;;14.13;6.55;;;;;;;;;;4834656;29;20761;-78
2022/01/21 21:01:57;;;;;;;21.75;8.40;;;;;;;;;;4834839;29;20053;-77
2022/01/21 21:04:24;;;;;;;17.08;7.15;;;;;;;;;;4835117;29;20094;-77
2022/01/21 21:06:51;;;;;;;16.00;8.05;;;;;;;;;;4834975;29;20058;-78
2022/01/21 21:09:23;;;;;;;17.50;8.30;;;;;;;;;;4834166;29;20085;-78
2022/01/21 21:11:53;;;;;;;17.42;8.05;;;;;;;;;;4834631;29;20085;-77
2022/01/21 21:14:46;;;;;;;18.38;8.60;;;;;;;;;;4834171;29;20134;-77
2022/01/21 21:25:19;;;;;;;12.05;6.13;;;;;;;;;;4831661;29;20061;-78
2022/01/21 21:27:54;;;;;;;17.42;6.20;;;;;;;;;;4832187;29;20057;-78
2022/01/21 22:17:32;;;;;;;12.30;4.70;;;;;;;;;;4834100;29;20069;-80